sensor_id;sensor_type;location;lat;lon;timestamp;P1;durP1;ratioP1;P2;durP2;ratioP2
49131;SDS011;35149;51.196;6.204;2023-05-13T00:02:20;7.05;;;6.40;;
49131;SDS011;35149;51.196;6.204;2023-05-13T00:04:46;6.90;;;6.30;;
49131;SDS011;35149;51.196;6.204;2023-05-13T00:07:13;8.02;;;6.43;;
49131;SDS011;35149;51.196;6.204;2023-05-13T00:09:40;6.50;;;5.95;;
49131;SDS011;35149;51.196;6.204;2023-05-13T00:12:07;5.80;;;5.22;;
49131;SDS011;35149;51.196;6.204;2023-05-13T00:14:34;7.07;;;5.63;;
49131;SDS011;35149;51.196;6.204;2023-05-13T00:17:03;6.13;;;5.53;;
49131;SDS011;35149;51.196;6.204;2023-05-13T00:19:33;5.75;;;5.25;;
49131;SDS011;35149;51.196;6.204;2023-05-13T00:21:59;6.07;;;5.40;;
49131;SDS011;35149;51.196;6.204;2023-05-13T00:24:26;5.55;;;5.05;;
49131;SDS011;35149;51.196;6.204;2023-05-13T00:26:53;6.38;;;5.53;;
49131;SDS011;35149;51.196;6.204;2023-05-13T00:29:21;6.88;;;6.18;;
49131;SDS011;35149;51.196;6.204;2023-05-13T00:31:47;6.68;;;6.07;;
49131;SDS011;35149;51.196;6.204;2023-05-13T00:34:14;6.28;;;5.78;;
49131;SDS011;35149;51.196;6.204;2023-05-13T00:36:41;6.63;;;5.93;;
49131;SDS011;35149;51.196;6.204;2023-05-13T00:39:09;6.55;;;5.97;;
49131;SDS011;35149;51.196;6.204;2023-05-13T00:41:36;7.43;;;5.90;;
49131;SDS011;35149;51.196;6.204;2023-05-13T00:44:03;6.38;;;5.72;;
49131;SDS011;35149;51.196;6.204;2023-05-13T00:46:33;6.65;;;6.05;;
49131;SDS011;35149;51.196;6.204;2023-05-13T00:49:07;5.75;;;5.25;;
49131;SDS011;35149;51.196;6.204;2023-05-13T00:51:36;6.68;;;5.63;;
49131;SDS011;35149;51.196;6.204;2023-05-13T00:54:05;5.38;;;4.97;;
49131;SDS011;35149;51.196;6.204;2023-05-13T00:56:38;5.85;;;5.38;;
49131;SDS011;35149;51.196;6.204;2023-05-13T00:59:08;7.97;;;6.30;;
49131;SDS011;35149;51.196;6.204;2023-05-13T01:04:54;6.82;;;6.22;;
49131;SDS011;35149;51.196;6.204;2023-05-13T01:07:39;6.90;;;6.20;;
49131;SDS011;35149;51.196;6.204;2023-05-13T01:13:19;6.78;;;6.18;;
49131;SDS011;35149;51.196;6.204;2023-05-13T01:15:55;7.80;;;7.03;;
49131;SDS011;35149;51.196;6.204;2023-05-13T01:18:36;7.63;;;6.95;;
49131;SDS011;35149;51.196;6.204;2023-05-13T01:21:08;7.70;;;7.05;;
49131;SDS011;35149;51.196;6.204;2023-05-13T01:23:36;8.13;;;7.32;;
49131;SDS011;35149;51.196;6.204;2023-05-13T01:26:03;7.43;;;6.72;;
49131;SDS011;35149;51.196;6.204;2023-05-13T01:28:41;7.63;;;6.93;;
49131;SDS011;35149;51.196;6.204;2023-05-13T01:31:08;7.82;;;7.13;;
49131;SDS011;35149;51.196;6.204;2023-05-13T01:33:37;8.30;;;7.45;;
49131;SDS011;35149;51.196;6.204;2023-05-13T01:36:08;9.43;;;8.43;;
49131;SDS011;35149;51.196;6.204;2023-05-13T01:38:37;9.52;;;8.63;;
49131;SDS011;35149;51.196;6.204;2023-05-13T01:41:07;9.50;;;8.60;;
49131;SDS011;35149;51.196;6.204;2023-05-13T01:43:36;8.95;;;8.10;;
49131;SDS011;35149;51.196;6.204;2023-05-13T01:46:10;9.35;;;8.20;;
49131;SDS011;35149;51.196;6.204;2023-05-13T01:48:39;8.13;;;7.32;;
49131;SDS011;35149;51.196;6.204;2023-05-13T01:51:06;8.00;;;7.10;;
49131;SDS011;35149;51.196;6.204;2023-05-13T01:53:37;7.63;;;6.93;;
49131;SDS011;35149;51.196;6.204;2023-05-13T01:56:04;7.47;;;6.88;;
49131;SDS011;35149;51.196;6.204;2023-05-13T01:58:34;7.03;;;6.40;;
49131;SDS011;35149;51.196;6.204;2023-05-13T02:01:07;8.52;;;7.72;;
49131;SDS011;35149;51.196;6.204;2023-05-13T02:03:35;7.82;;;7.22;;
49131;SDS011;35149;51.196;6.204;2023-05-13T02:06:03;8.82;;;8.02;;
49131;SDS011;35149;51.196;6.204;2023-05-13T02:08:31;8.93;;;7.88;;
49131;SDS011;35149;51.196;6.204;2023-05-13T02:11:02;9.07;;;7.07;;
49131;SDS011;35149;51.196;6.204;2023-05-13T02:13:28;7.03;;;6.43;;
49131;SDS011;35149;51.196;6.204;2023-05-13T02:15:58;8.15;;;6.80;;
49131;SDS011;35149;51.196;6.204;2023-05-13T02:18:27;6.72;;;6.13;;
49131;SDS011;35149;51.196;6.204;2023-05-13T02:20:56;7.03;;;6.38;;
49131;SDS011;35149;51.196;6.204;2023-05-13T02:23:26;7.60;;;6.90;;
49131;SDS011;35149;51.196;6.204;2023-05-13T02:25:54;8.38;;;6.55;;
49131;SDS011;35149;51.196;6.204;2023-05-13T02:28:26;6.65;;;6.00;;
49131;SDS011;35149;51.196;6.204;2023-05-13T02:30:52;7.15;;;6.45;;
49131;SDS011;35149;51.196;6.204;2023-05-13T02:33:19;7.03;;;6.38;;
49131;SDS011;35149;51.196;6.204;2023-05-13T02:35:46;8.90;;;8.15;;
49131;SDS011;35149;51.196;6.204;2023-05-13T02:38:12;12.30;;;8.57;;
49131;SDS011;35149;51.196;6.204;2023-05-13T02:40:41;9.23;;;8.40;;
49131;SDS011;35149;51.196;6.204;2023-05-13T02:43:09;8.55;;;7.75;;
49131;SDS011;35149;51.196;6.204;2023-05-13T02:45:51;10.23;;;7.22;;
49131;SDS011;35149;51.196;6.204;2023-05-13T02:48:19;8.48;;;7.68;;
49131;SDS011;35149;51.196;6.204;2023-05-13T02:50:46;9.48;;;7.88;;
49131;SDS011;35149;51.196;6.204;2023-05-13T02:53:17;8.63;;;7.82;;
49131;SDS011;35149;51.196;6.204;2023-05-13T02:55:50;8.07;;;7.32;;
49131;SDS011;35149;51.196;6.204;2023-05-13T02:58:17;9.10;;;8.30;;
49131;SDS011;35149;51.196;6.204;2023-05-13T03:00:46;9.40;;;8.60;;
49131;SDS011;35149;51.196;6.204;2023-05-13T03:03:16;9.15;;;7.95;;
49131;SDS011;35149;51.196;6.204;2023-05-13T03:05:43;9.70;;;8.80;;
49131;SDS011;35149;51.196;6.204;2023-05-13T03:08:13;9.10;;;8.20;;
49131;SDS011;35149;51.196;6.204;2023-05-13T03:10:42;8.35;;;7.45;;
49131;SDS011;35149;51.196;6.204;2023-05-13T03:13:10;7.13;;;6.53;;
49131;SDS011;35149;51.196;6.204;2023-05-13T03:15:40;8.05;;;7.07;;
49131;SDS011;35149;51.196;6.204;2023-05-13T03:18:10;7.18;;;6.47;;
49131;SDS011;35149;51.196;6.204;2023-05-13T03:20:41;7.50;;;6.82;;
49131;SDS011;35149;51.196;6.204;2023-05-13T03:23:10;7.40;;;6.70;;
49131;SDS011;35149;51.196;6.204;2023-05-13T03:25:41;7.78;;;7.07;;
49131;SDS011;35149;51.196;6.204;2023-05-13T03:28:09;7.55;;;6.85;;
49131;SDS011;35149;51.196;6.204;2023-05-13T03:30:41;7.22;;;6.43;;
49131;SDS011;35149;51.196;6.204;2023-05-13T03:33:21;7.45;;;6.63;;
49131;SDS011;35149;51.196;6.204;2023-05-13T03:35:48;7.47;;;6.78;;
49131;SDS011;35149;51.196;6.204;2023-05-13T03:38:19;6.35;;;5.82;;
49131;SDS011;35149;51.196;6.204;2023-05-13T03:40:49;6.30;;;5.80;;
49131;SDS011;35149;51.196;6.204;2023-05-13T03:43:20;6.47;;;5.88;;
49131;SDS011;35149;51.196;6.204;2023-05-13T03:45:57;7.00;;;6.28;;
49131;SDS011;35149;51.196;6.204;2023-05-13T03:48:25;6.63;;;6.03;;
49131;SDS011;35149;51.196;6.204;2023-05-13T03:50:55;7.18;;;6.30;;
49131;SDS011;35149;51.196;6.204;2023-05-13T03:53:25;6.97;;;6.38;;
49131;SDS011;35149;51.196;6.204;2023-05-13T03:55:53;7.18;;;5.88;;
49131;SDS011;35149;51.196;6.204;2023-05-13T03:58:22;6.32;;;5.72;;
49131;SDS011;35149;51.196;6.204;2023-05-13T04:00:49;7.53;;;6.68;;
49131;SDS011;35149;51.196;6.204;2023-05-13T04:03:19;7.28;;;6.60;;
49131;SDS011;35149;51.196;6.204;2023-05-13T04:05:46;6.55;;;5.95;;
49131;SDS011;35149;51.196;6.204;2023-05-13T04:08:21;7.10;;;6.50;;
49131;SDS011;35149;51.196;6.204;2023-05-13T04:10:54;6.85;;;6.25;;
49131;SDS011;35149;51.196;6.204;2023-05-13T04:13:24;7.03;;;6.43;;
49131;SDS011;35149;51.196;6.204;2023-05-13T04:15:51;7.57;;;6.88;;
49131;SDS011;35149;51.196;6.204;2023-05-13T04:18:20;7.40;;;6.78;;
49131;SDS011;35149;51.196;6.204;2023-05-13T04:20:49;7.15;;;6.55;;
49131;SDS011;35149;51.196;6.204;2023-05-13T04:23:17;7.55;;;6.93;;
49131;SDS011;35149;51.196;6.204;2023-05-13T04:25:51;7.22;;;6.63;;
49131;SDS011;35149;51.196;6.204;2023-05-13T04:28:20;7.43;;;6.70;;
49131;SDS011;35149;51.196;6.204;2023-05-13T04:30:48;7.35;;;6.65;;
49131;SDS011;35149;51.196;6.204;2023-05-13T04:33:17;7.82;;;7.03;;
49131;SDS011;35149;51.196;6.204;2023-05-13T04:35:49;7.57;;;6.70;;
49131;SDS011;35149;51.196;6.204;2023-05-13T04:38:16;7.50;;;6.40;;
49131;SDS011;35149;51.196;6.204;2023-05-13T04:40:45;7.80;;;7.10;;
49131;SDS011;35149;51.196;6.204;2023-05-13T04:43:20;7.32;;;6.57;;
49131;SDS011;35149;51.196;6.204;2023-05-13T04:45:54;6.93;;;6.30;;
49131;SDS011;35149;51.196;6.204;2023-05-13T04:48:21;7.30;;;6.70;;
49131;SDS011;35149;51.196;6.204;2023-05-13T04:50:50;6.93;;;6.40;;
49131;SDS011;35149;51.196;6.204;2023-05-13T04:53:17;7.55;;;6.85;;
49131;SDS011;35149;51.196;6.204;2023-05-13T04:55:47;7.15;;;6.55;;
49131;SDS011;35149;51.196;6.204;2023-05-13T04:58:17;7.80;;;7.10;;
49131;SDS011;35149;51.196;6.204;2023-05-13T05:00:44;8.18;;;7.43;;
49131;SDS011;35149;51.196;6.204;2023-05-13T05:03:18;7.88;;;7.18;;
49131;SDS011;35149;51.196;6.204;2023-05-13T05:05:45;8.88;;;8.18;;
49131;SDS011;35149;51.196;6.204;2023-05-13T05:08:15;9.70;;;8.80;;
49131;SDS011;35149;51.196;6.204;2023-05-13T05:10:42;10.00;;;9.13;;
49131;SDS011;35149;51.196;6.204;2023-05-13T05:13:12;8.57;;;7.68;;
49131;SDS011;35149;51.196;6.204;2023-05-13T05:15:42;9.30;;;8.38;;
49131;SDS011;35149;51.196;6.204;2023-05-13T05:18:09;8.48;;;7.70;;
49131;SDS011;35149;51.196;6.204;2023-05-13T05:20:38;9.40;;;8.50;;
49131;SDS011;35149;51.196;6.204;2023-05-13T05:23:09;11.65;;;9.07;;
49131;SDS011;35149;51.196;6.204;2023-05-13T05:25:37;9.93;;;8.95;;
49131;SDS011;35149;51.196;6.204;2023-05-13T05:28:04;10.45;;;9.35;;
49131;SDS011;35149;51.196;6.204;2023-05-13T05:30:33;11.48;;;10.38;;
49131;SDS011;35149;51.196;6.204;2023-05-13T05:33:17;11.25;;;10.18;;
49131;SDS011;35149;51.196;6.204;2023-05-13T05:35:45;10.15;;;9.30;;
49131;SDS011;35149;51.196;6.204;2023-05-13T05:38:22;10.80;;;9.80;;
49131;SDS011;35149;51.196;6.204;2023-05-13T05:40:51;10.02;;;9.02;;
49131;SDS011;35149;51.196;6.204;2023-05-13T05:43:23;11.13;;;10.00;;
49131;SDS011;35149;51.196;6.204;2023-05-13T05:45:56;11.82;;;10.35;;
49131;SDS011;35149;51.196;6.204;2023-05-13T05:48:24;11.55;;;10.38;;
49131;SDS011;35149;51.196;6.204;2023-05-13T05:50:51;11.52;;;10.35;;
49131;SDS011;35149;51.196;6.204;2023-05-13T05:53:25;11.63;;;10.45;;
49131;SDS011;35149;51.196;6.204;2023-05-13T05:55:52;12.15;;;10.68;;
49131;SDS011;35149;51.196;6.204;2023-05-13T05:58:19;12.07;;;10.88;;
49131;SDS011;35149;51.196;6.204;2023-05-13T06:00:47;11.05;;;9.95;;
49131;SDS011;35149;51.196;6.204;2023-05-13T06:03:17;12.40;;;11.20;;
49131;SDS011;35149;51.196;6.204;2023-05-13T06:05:46;12.32;;;11.05;;
49131;SDS011;35149;51.196;6.204;2023-05-13T06:08:17;10.40;;;9.38;;
49131;SDS011;35149;51.196;6.204;2023-05-13T06:10:44;11.45;;;10.35;;
49131;SDS011;35149;51.196;6.204;2023-05-13T06:13:14;12.27;;;10.00;;
49131;SDS011;35149;51.196;6.204;2023-05-13T06:15:41;11.35;;;10.23;;
49131;SDS011;35149;51.196;6.204;2023-05-13T06:18:09;11.20;;;9.85;;
49131;SDS011;35149;51.196;6.204;2023-05-13T06:20:36;11.52;;;10.20;;
49131;SDS011;35149;51.196;6.204;2023-05-13T06:23:03;13.63;;;9.57;;
49131;SDS011;35149;51.196;6.204;2023-05-13T06:25:30;11.00;;;10.05;;
49131;SDS011;35149;51.196;6.204;2023-05-13T06:27:56;13.35;;;10.27;;
49131;SDS011;35149;51.196;6.204;2023-05-13T06:30:25;12.35;;;10.15;;
49131;SDS011;35149;51.196;6.204;2023-05-13T06:32:54;10.35;;;9.38;;
49131;SDS011;35149;51.196;6.204;2023-05-13T06:35:28;10.60;;;9.50;;
49131;SDS011;35149;51.196;6.204;2023-05-13T06:37:55;14.10;;;10.35;;
49131;SDS011;35149;51.196;6.204;2023-05-13T06:40:22;11.48;;;10.35;;
49131;SDS011;35149;51.196;6.204;2023-05-13T06:42:50;11.30;;;10.05;;
49131;SDS011;35149;51.196;6.204;2023-05-13T06:45:26;12.43;;;10.48;;
49131;SDS011;35149;51.196;6.204;2023-05-13T06:47:55;11.15;;;10.02;;
49131;SDS011;35149;51.196;6.204;2023-05-13T06:50:22;12.38;;;11.07;;
49131;SDS011;35149;51.196;6.204;2023-05-13T06:52:51;11.10;;;9.80;;
49131;SDS011;35149;51.196;6.204;2023-05-13T06:55:18;12.80;;;9.88;;
49131;SDS011;35149;51.196;6.204;2023-05-13T06:57:45;10.98;;;9.85;;
49131;SDS011;35149;51.196;6.204;2023-05-13T07:00:15;11.25;;;10.15;;
49131;SDS011;35149;51.196;6.204;2023-05-13T07:02:42;10.35;;;9.35;;
49131;SDS011;35149;51.196;6.204;2023-05-13T07:05:09;10.57;;;9.50;;
49131;SDS011;35149;51.196;6.204;2023-05-13T07:07:37;10.98;;;9.95;;
49131;SDS011;35149;51.196;6.204;2023-05-13T07:10:04;11.88;;;10.18;;
49131;SDS011;35149;51.196;6.204;2023-05-13T07:12:31;11.30;;;10.13;;
49131;SDS011;35149;51.196;6.204;2023-05-13T07:14:58;10.50;;;9.10;;
49131;SDS011;35149;51.196;6.204;2023-05-13T07:17:27;13.25;;;8.88;;
49131;SDS011;35149;51.196;6.204;2023-05-13T07:19:56;10.48;;;9.48;;
49131;SDS011;35149;51.196;6.204;2023-05-13T07:22:22;10.05;;;9.15;;
49131;SDS011;35149;51.196;6.204;2023-05-13T07:24:50;10.18;;;9.07;;
49131;SDS011;35149;51.196;6.204;2023-05-13T07:27:16;10.13;;;9.07;;
49131;SDS011;35149;51.196;6.204;2023-05-13T07:29:43;10.63;;;9.48;;
49131;SDS011;35149;51.196;6.204;2023-05-13T07:32:09;9.10;;;8.18;;
49131;SDS011;35149;51.196;6.204;2023-05-13T07:34:36;9.48;;;8.48;;
49131;SDS011;35149;51.196;6.204;2023-05-13T07:37:03;9.50;;;8.57;;
49131;SDS011;35149;51.196;6.204;2023-05-13T07:39:30;10.23;;;9.32;;
49131;SDS011;35149;51.196;6.204;2023-05-13T07:41:57;9.00;;;8.10;;
49131;SDS011;35149;51.196;6.204;2023-05-13T07:44:23;9.38;;;8.48;;
49131;SDS011;35149;51.196;6.204;2023-05-13T07:46:50;9.35;;;8.38;;
49131;SDS011;35149;51.196;6.204;2023-05-13T07:49:19;8.70;;;7.90;;
49131;SDS011;35149;51.196;6.204;2023-05-13T07:51:46;9.68;;;8.30;;
49131;SDS011;35149;51.196;6.204;2023-05-13T07:54:12;9.40;;;8.50;;
49131;SDS011;35149;51.196;6.204;2023-05-13T07:56:39;8.05;;;7.25;;
49131;SDS011;35149;51.196;6.204;2023-05-13T07:59:05;10.93;;;8.38;;
49131;SDS011;35149;51.196;6.204;2023-05-13T08:01:32;9.00;;;8.10;;
49131;SDS011;35149;51.196;6.204;2023-05-13T08:03:59;12.00;;;9.38;;
49131;SDS011;35149;51.196;6.204;2023-05-13T08:06:26;9.82;;;8.57;;
49131;SDS011;35149;51.196;6.204;2023-05-13T08:08:52;10.93;;;8.13;;
49131;SDS011;35149;51.196;6.204;2023-05-13T08:11:21;9.55;;;7.97;;
49131;SDS011;35149;51.196;6.204;2023-05-13T08:13:48;11.00;;;8.50;;
49131;SDS011;35149;51.196;6.204;2023-05-13T08:16:17;9.00;;;8.10;;
49131;SDS011;35149;51.196;6.204;2023-05-13T08:18:43;10.73;;;9.13;;
49131;SDS011;35149;51.196;6.204;2023-05-13T08:21:12;10.77;;;8.85;;
49131;SDS011;35149;51.196;6.204;2023-05-13T08:23:39;10.82;;;9.07;;
49131;SDS011;35149;51.196;6.204;2023-05-13T08:26:11;10.18;;;8.88;;
49131;SDS011;35149;51.196;6.204;2023-05-13T08:28:40;9.90;;;8.90;;
49131;SDS011;35149;51.196;6.204;2023-05-13T08:31:09;9.40;;;8.38;;
49131;SDS011;35149;51.196;6.204;2023-05-13T08:33:37;9.93;;;8.93;;
49131;SDS011;35149;51.196;6.204;2023-05-13T08:36:07;9.68;;;8.73;;
49131;SDS011;35149;51.196;6.204;2023-05-13T08:38:36;8.90;;;7.95;;
49131;SDS011;35149;51.196;6.204;2023-05-13T08:41:03;10.25;;;9.35;;
49131;SDS011;35149;51.196;6.204;2023-05-13T08:43:31;9.90;;;8.90;;
49131;SDS011;35149;51.196;6.204;2023-05-13T08:46:01;10.30;;;7.88;;
49131;SDS011;35149;51.196;6.204;2023-05-13T08:48:36;8.75;;;7.82;;
49131;SDS011;35149;51.196;6.204;2023-05-13T08:51:04;8.68;;;7.82;;
49131;SDS011;35149;51.196;6.204;2023-05-13T08:53:31;8.20;;;7.13;;
49131;SDS011;35149;51.196;6.204;2023-05-13T08:56:00;11.65;;;6.95;;
49131;SDS011;35149;51.196;6.204;2023-05-13T08:58:27;10.98;;;7.05;;
49131;SDS011;35149;51.196;6.204;2023-05-13T09:00:54;7.30;;;6.60;;
49131;SDS011;35149;51.196;6.204;2023-05-13T09:03:21;8.43;;;7.63;;
49131;SDS011;35149;51.196;6.204;2023-05-13T09:05:48;8.88;;;7.30;;
49131;SDS011;35149;51.196;6.204;2023-05-13T09:08:14;9.55;;;7.32;;
49131;SDS011;35149;51.196;6.204;2023-05-13T09:10:41;8.48;;;6.80;;
49131;SDS011;35149;51.196;6.204;2023-05-13T09:13:10;7.63;;;6.93;;
49131;SDS011;35149;51.196;6.204;2023-05-13T09:15:38;8.40;;;6.95;;
49131;SDS011;35149;51.196;6.204;2023-05-13T09:18:06;7.72;;;6.93;;
49131;SDS011;35149;51.196;6.204;2023-05-13T09:20:34;7.15;;;6.32;;
49131;SDS011;35149;51.196;6.204;2023-05-13T09:23:01;7.80;;;5.85;;
49131;SDS011;35149;51.196;6.204;2023-05-13T09:25:29;9.93;;;6.93;;
49131;SDS011;35149;51.196;6.204;2023-05-13T09:28:00;8.20;;;7.40;;
49131;SDS011;35149;51.196;6.204;2023-05-13T09:30:29;7.57;;;6.80;;
49131;SDS011;35149;51.196;6.204;2023-05-13T09:35:48;7.43;;;5.80;;
49131;SDS011;35149;51.196;6.204;2023-05-13T09:38:19;6.13;;;5.55;;
49131;SDS011;35149;51.196;6.204;2023-05-13T09:40:53;9.75;;;5.93;;
49131;SDS011;35149;51.196;6.204;2023-05-13T09:43:22;6.32;;;5.72;;
49131;SDS011;35149;51.196;6.204;2023-05-13T09:45:53;7.50;;;5.82;;
49131;SDS011;35149;51.196;6.204;2023-05-13T09:48:23;6.85;;;6.20;;
49131;SDS011;35149;51.196;6.204;2023-05-13T09:50:52;7.28;;;6.32;;
49131;SDS011;35149;51.196;6.204;2023-05-13T09:53:20;9.10;;;6.38;;
49131;SDS011;35149;51.196;6.204;2023-05-13T09:55:47;7.35;;;5.70;;
49131;SDS011;35149;51.196;6.204;2023-05-13T09:58:15;6.40;;;5.72;;
49131;SDS011;35149;51.196;6.204;2023-05-13T10:00:42;7.80;;;5.78;;
49131;SDS011;35149;51.196;6.204;2023-05-13T10:03:09;7.13;;;6.10;;
49131;SDS011;35149;51.196;6.204;2023-05-13T10:05:37;8.77;;;6.32;;
49131;SDS011;35149;51.196;6.204;2023-05-13T10:08:08;7.55;;;5.78;;
49131;SDS011;35149;51.196;6.204;2023-05-13T10:10:35;7.40;;;5.85;;
49131;SDS011;35149;51.196;6.204;2023-05-13T10:13:04;6.45;;;5.80;;
49131;SDS011;35149;51.196;6.204;2023-05-13T10:15:35;5.97;;;5.07;;
49131;SDS011;35149;51.196;6.204;2023-05-13T10:18:14;5.82;;;5.32;;
49131;SDS011;35149;51.196;6.204;2023-05-13T10:20:42;6.63;;;6.00;;
49131;SDS011;35149;51.196;6.204;2023-05-13T10:23:10;8.00;;;5.63;;
49131;SDS011;35149;51.196;6.204;2023-05-13T10:25:37;5.28;;;4.85;;
49131;SDS011;35149;51.196;6.204;2023-05-13T10:28:04;5.90;;;5.32;;
49131;SDS011;35149;51.196;6.204;2023-05-13T10:30:31;7.10;;;6.07;;
49131;SDS011;35149;51.196;6.204;2023-05-13T10:33:03;8.63;;;6.35;;
49131;SDS011;35149;51.196;6.204;2023-05-13T10:35:38;7.88;;;5.68;;
49131;SDS011;35149;51.196;6.204;2023-05-13T10:38:29;6.15;;;5.15;;
49131;SDS011;35149;51.196;6.204;2023-05-13T10:41:29;6.25;;;5.65;;
49131;SDS011;35149;51.196;6.204;2023-05-13T10:44:27;8.82;;;5.95;;
49131;SDS011;35149;51.196;6.204;2023-05-13T10:46:57;5.32;;;4.82;;
49131;SDS011;35149;51.196;6.204;2023-05-13T10:49:31;5.85;;;5.25;;
49131;SDS011;35149;51.196;6.204;2023-05-13T10:54:36;5.20;;;4.70;;
49131;SDS011;35149;51.196;6.204;2023-05-13T10:57:05;5.57;;;4.82;;
49131;SDS011;35149;51.196;6.204;2023-05-13T10:59:32;6.50;;;4.80;;
49131;SDS011;35149;51.196;6.204;2023-05-13T11:02:01;6.63;;;4.72;;
49131;SDS011;35149;51.196;6.204;2023-05-13T11:04:57;4.85;;;4.35;;
49131;SDS011;35149;51.196;6.204;2023-05-13T11:07:28;5.07;;;4.30;;
49131;SDS011;35149;51.196;6.204;2023-05-13T11:09:55;6.88;;;4.28;;
49131;SDS011;35149;51.196;6.204;2023-05-13T11:12:21;5.18;;;3.72;;
49131;SDS011;35149;51.196;6.204;2023-05-13T11:14:48;5.75;;;4.70;;
49131;SDS011;35149;51.196;6.204;2023-05-13T11:17:16;5.10;;;4.60;;
49131;SDS011;35149;51.196;6.204;2023-05-13T11:19:45;6.30;;;5.28;;
49131;SDS011;35149;51.196;6.204;2023-05-13T11:22:13;6.40;;;5.18;;
49131;SDS011;35149;51.196;6.204;2023-05-13T11:24:45;5.85;;;5.20;;
49131;SDS011;35149;51.196;6.204;2023-05-13T11:27:32;7.63;;;6.20;;
49131;SDS011;35149;51.196;6.204;2023-05-13T11:30:06;5.50;;;4.95;;
49131;SDS011;35149;51.196;6.204;2023-05-13T11:35:24;5.78;;;4.95;;
49131;SDS011;35149;51.196;6.204;2023-05-13T11:37:52;7.60;;;4.80;;
49131;SDS011;35149;51.196;6.204;2023-05-13T11:40:30;5.40;;;4.78;;
49131;SDS011;35149;51.196;6.204;2023-05-13T11:42:58;4.70;;;4.25;;
49131;SDS011;35149;51.196;6.204;2023-05-13T11:45:26;6.28;;;4.22;;
49131;SDS011;35149;51.196;6.204;2023-05-13T11:47:55;7.10;;;4.47;;
49131;SDS011;35149;51.196;6.204;2023-05-13T11:50:26;4.97;;;4.60;;
49131;SDS011;35149;51.196;6.204;2023-05-13T11:52:58;4.10;;;3.72;;
49131;SDS011;35149;51.196;6.204;2023-05-13T11:55:32;4.65;;;3.72;;
49131;SDS011;35149;51.196;6.204;2023-05-13T11:58:03;3.00;;;2.80;;
49131;SDS011;35149;51.196;6.204;2023-05-13T12:00:30;5.90;;;4.15;;
49131;SDS011;35149;51.196;6.204;2023-05-13T12:02:59;5.07;;;3.13;;
49131;SDS011;35149;51.196;6.204;2023-05-13T12:05:28;3.50;;;3.00;;
49131;SDS011;35149;51.196;6.204;2023-05-13T12:07:55;3.88;;;3.58;;
49131;SDS011;35149;51.196;6.204;2023-05-13T12:10:23;3.47;;;3.22;;
49131;SDS011;35149;51.196;6.204;2023-05-13T12:12:50;3.88;;;3.30;;
49131;SDS011;35149;51.196;6.204;2023-05-13T12:15:18;3.65;;;3.35;;
49131;SDS011;35149;51.196;6.204;2023-05-13T12:17:47;9.90;;;3.50;;
49131;SDS011;35149;51.196;6.204;2023-05-13T12:20:17;4.28;;;3.88;;
49131;SDS011;35149;51.196;6.204;2023-05-13T12:31:02;3.83;;;3.50;;
49131;SDS011;35149;51.196;6.204;2023-05-13T12:33:32;6.75;;;4.47;;
49131;SDS011;35149;51.196;6.204;2023-05-13T12:36:17;5.38;;;3.65;;
49131;SDS011;35149;51.196;6.204;2023-05-13T12:38:54;4.90;;;3.22;;
49131;SDS011;35149;51.196;6.204;2023-05-13T12:41:27;3.10;;;2.80;;
49131;SDS011;35149;51.196;6.204;2023-05-13T12:43:59;3.83;;;3.38;;
49131;SDS011;35149;51.196;6.204;2023-05-13T12:46:27;8.05;;;4.15;;
49131;SDS011;35149;51.196;6.204;2023-05-13T12:48:54;3.40;;;3.20;;
49131;SDS011;35149;51.196;6.204;2023-05-13T12:51:23;3.20;;;3.00;;
49131;SDS011;35149;51.196;6.204;2023-05-13T12:53:50;4.43;;;3.63;;
49131;SDS011;35149;51.196;6.204;2023-05-13T12:56:20;3.63;;;3.08;;
49131;SDS011;35149;51.196;6.204;2023-05-13T12:58:48;3.13;;;2.88;;
49131;SDS011;35149;51.196;6.204;2023-05-13T13:01:16;3.97;;;3.15;;
49131;SDS011;35149;51.196;6.204;2023-05-13T13:03:43;3.42;;;3.08;;
49131;SDS011;35149;51.196;6.204;2023-05-13T13:06:11;3.13;;;2.92;;
49131;SDS011;35149;51.196;6.204;2023-05-13T13:08:38;3.08;;;2.80;;
49131;SDS011;35149;51.196;6.204;2023-05-13T13:11:05;3.33;;;3.03;;
49131;SDS011;35149;51.196;6.204;2023-05-13T13:13:32;3.65;;;3.00;;
49131;SDS011;35149;51.196;6.204;2023-05-13T13:15:59;5.97;;;2.92;;
49131;SDS011;35149;51.196;6.204;2023-05-13T13:18:26;3.60;;;3.17;;
49131;SDS011;35149;51.196;6.204;2023-05-13T13:20:53;4.10;;;2.95;;
49131;SDS011;35149;51.196;6.204;2023-05-13T13:23:20;5.30;;;3.45;;
49131;SDS011;35149;51.196;6.204;2023-05-13T13:25:47;3.70;;;3.38;;
49131;SDS011;35149;51.196;6.204;2023-05-13T13:28:13;3.67;;;3.33;;
49131;SDS011;35149;51.196;6.204;2023-05-13T13:30:40;4.10;;;3.03;;
49131;SDS011;35149;51.196;6.204;2023-05-13T13:33:14;3.28;;;2.88;;
49131;SDS011;35149;51.196;6.204;2023-05-13T13:35:42;3.72;;;3.33;;
49131;SDS011;35149;51.196;6.204;2023-05-13T13:38:09;5.53;;;3.47;;
49131;SDS011;35149;51.196;6.204;2023-05-13T13:40:36;3.10;;;2.90;;
49131;SDS011;35149;51.196;6.204;2023-05-13T13:43:03;4.95;;;3.22;;
49131;SDS011;35149;51.196;6.204;2023-05-13T13:45:32;4.03;;;3.35;;
49131;SDS011;35149;51.196;6.204;2023-05-13T13:47:59;4.00;;;3.20;;
49131;SDS011;35149;51.196;6.204;2023-05-13T13:50:29;3.00;;;2.70;;
49131;SDS011;35149;51.196;6.204;2023-05-13T13:52:56;3.53;;;3.03;;
49131;SDS011;35149;51.196;6.204;2023-05-13T13:55:23;3.78;;;3.05;;
49131;SDS011;35149;51.196;6.204;2023-05-13T13:57:50;4.68;;;3.33;;
49131;SDS011;35149;51.196;6.204;2023-05-13T14:00:17;3.97;;;3.15;;
49131;SDS011;35149;51.196;6.204;2023-05-13T14:02:44;4.75;;;3.33;;
49131;SDS011;35149;51.196;6.204;2023-05-13T14:05:13;3.03;;;2.67;;
49131;SDS011;35149;51.196;6.204;2023-05-13T14:07:41;4.10;;;3.00;;
49131;SDS011;35149;51.196;6.204;2023-05-13T14:10:07;4.60;;;2.80;;
49131;SDS011;35149;51.196;6.204;2023-05-13T14:12:34;3.05;;;2.65;;
49131;SDS011;35149;51.196;6.204;2023-05-13T14:15:01;2.83;;;2.63;;
49131;SDS011;35149;51.196;6.204;2023-05-13T14:17:28;2.78;;;2.50;;
49131;SDS011;35149;51.196;6.204;2023-05-13T14:19:58;3.92;;;2.45;;
49131;SDS011;35149;51.196;6.204;2023-05-13T14:22:24;3.38;;;2.20;;
49131;SDS011;35149;51.196;6.204;2023-05-13T14:24:51;4.22;;;2.53;;
49131;SDS011;35149;51.196;6.204;2023-05-13T14:27:19;2.47;;;2.28;;
49131;SDS011;35149;51.196;6.204;2023-05-13T14:29:46;4.05;;;2.40;;
49131;SDS011;35149;51.196;6.204;2023-05-13T14:32:13;4.93;;;2.50;;
49131;SDS011;35149;51.196;6.204;2023-05-13T14:34:40;3.90;;;3.20;;
49131;SDS011;35149;51.196;6.204;2023-05-13T14:37:07;2.83;;;2.63;;
49131;SDS011;35149;51.196;6.204;2023-05-13T14:39:34;2.80;;;2.50;;
49131;SDS011;35149;51.196;6.204;2023-05-13T14:42:01;3.30;;;2.58;;
49131;SDS011;35149;51.196;6.204;2023-05-13T14:44:28;4.10;;;2.70;;
49131;SDS011;35149;51.196;6.204;2023-05-13T14:46:55;3.95;;;2.85;;
49131;SDS011;35149;51.196;6.204;2023-05-13T14:49:22;3.17;;;2.42;;
49131;SDS011;35149;51.196;6.204;2023-05-13T14:51:48;2.88;;;2.15;;
49131;SDS011;35149;51.196;6.204;2023-05-13T14:54:15;2.85;;;2.50;;
49131;SDS011;35149;51.196;6.204;2023-05-13T14:56:42;3.53;;;2.40;;
49131;SDS011;35149;51.196;6.204;2023-05-13T14:59:09;2.92;;;2.72;;
49131;SDS011;35149;51.196;6.204;2023-05-13T15:01:36;2.80;;;2.30;;
49131;SDS011;35149;51.196;6.204;2023-05-13T15:04:03;2.40;;;2.20;;
49131;SDS011;35149;51.196;6.204;2023-05-13T15:06:30;3.08;;;2.40;;
49131;SDS011;35149;51.196;6.204;2023-05-13T15:08:57;2.63;;;2.42;;
49131;SDS011;35149;51.196;6.204;2023-05-13T15:11:25;3.17;;;2.30;;
49131;SDS011;35149;51.196;6.204;2023-05-13T15:13:53;3.20;;;1.92;;
49131;SDS011;35149;51.196;6.204;2023-05-13T15:16:20;3.45;;;2.30;;
49131;SDS011;35149;51.196;6.204;2023-05-13T15:18:47;2.90;;;2.25;;